Terminal Aerodrome Forecast
Issued by NWS

Home | Current Version | Previous Version | Text Only | Print | Product List | Glossary Off
Versions: 1 2 3 4 5 6 7 8 9 10 11 12 13 14 15 16 17 18

000
FTUS43 KOAX 282327
TAFCDR
TAF
KCDR 282327Z 2900/2924 07008KT 5SM -RA SCT007 BKN015 OVC025
      TEMPO 2900/2904 2SM -RA BKN007 OVC015
     FM290400 05005KT 2SM -RA OVC007
     FM291000 36005KT 3SM -RASN BKN004 OVC007
     FM291500 35006KT P6SM OVC015
     FM291800 02007KT P6SM BKN025 OVC050=

USA.gov is the U.S. government's official web portal to all federal, state and local government web resources and services.